createdAt,value
2019-03-10T00:00:23.451Z,13.91
2019-03-10T00:03:53.651Z,13.83
2019-03-10T00:07:24.695Z,13.7
2019-03-10T00:10:54.747Z,13.65
2019-03-10T00:14:24.803Z,13.54
2019-03-10T00:17:54.952Z,13.45
2019-03-10T00:21:25.004Z,13.4
2019-03-10T00:24:55.207Z,13.32
2019-03-10T00:28:25.268Z,13.27
2019-03-10T00:31:55.500Z,13.24
2019-03-10T00:35:25.682Z,12.95
2019-03-10T00:39:12.874Z,12.73
2019-03-10T00:50:31.930Z,12.65
2019-03-10T00:54:01.933Z,12.79
2019-03-10T00:57:32.255Z,12.9
2019-03-10T01:01:02.400Z,12.99
2019-03-10T01:04:32.508Z,13.04
2019-03-10T01:08:03.561Z,12.96
2019-03-10T01:11:33.849Z,12.86
2019-03-10T01:15:04.785Z,12.83
2019-03-10T01:18:35.738Z,12.86
2019-03-10T01:22:05.759Z,12.91
2019-03-10T01:25:35.799Z,12.86
2019-03-10T01:29:05.713Z,12.85
2019-03-10T01:35:00.364Z,12.92
2019-03-10T01:38:30.429Z,12.86
2019-03-10T01:42:00.580Z,12.55
2019-03-10T01:45:30.632Z,12.51
2019-03-10T01:49:00.696Z,12.58
2019-03-10T01:52:30.778Z,12.71
2019-03-10T01:56:00.909Z,12.72
2019-03-10T01:59:30.881Z,12.74
2019-03-10T02:00:17.081Z,12.74
2019-03-10T02:03:47.073Z,12.56
2019-03-10T02:07:17.056Z,12.41
2019-03-10T02:10:48.137Z,12.22
2019-03-10T02:14:18.309Z,12.17
2019-03-10T02:17:48.381Z,12.04
2019-03-10T02:21:18.442Z,12.03
2019-03-10T02:24:48.490Z,12.04
2019-03-10T02:28:18.417Z,12.15
2019-03-10T02:31:48.569Z,12.27
2019-03-10T02:35:18.670Z,12.42
2019-03-10T02:38:48.723Z,12.51
2019-03-10T02:42:18.785Z,12.57
2019-03-10T02:45:48.912Z,12.57
2019-03-10T02:49:19.030Z,12.63
2019-03-10T02:52:49.181Z,12.65
2019-03-10T02:56:19.321Z,12.67
2019-03-10T02:59:49.456Z,12.71
2019-03-10T03:03:19.577Z,12.73
2019-03-10T03:06:49.669Z,12.74
2019-03-10T03:10:19.701Z,12.73
2019-03-10T03:13:50.784Z,12.65
2019-03-10T03:17:20.926Z,12.51
2019-03-10T03:20:51.087Z,12.36
2019-03-10T03:24:21.152Z,12.39
2019-03-10T03:27:51.181Z,12.45
2019-03-10T03:31:21.178Z,12.37
2019-03-10T03:34:51.319Z,12.38
2019-03-10T03:38:24.468Z,12.33
2019-03-10T03:41:54.493Z,12.2
2019-03-10T03:45:24.553Z,12.22
2019-03-10T03:48:54.674Z,12.14
2019-03-10T03:52:24.715Z,11.98
2019-03-10T03:55:55.097Z,11.93
2019-03-10T03:59:25.199Z,11.89
2019-03-10T04:00:17.130Z,11.85
2019-03-10T04:03:47.416Z,11.73
2019-03-10T04:07:17.533Z,11.68
2019-03-10T04:10:47.599Z,11.63
2019-03-10T04:14:17.758Z,11.71
2019-03-10T04:17:47.849Z,11.74
2019-03-10T04:21:17.855Z,11.81
2019-03-10T04:24:47.974Z,11.77
2019-03-10T04:28:18.026Z,11.76
2019-03-10T04:31:48.007Z,11.76
2019-03-10T04:35:18.029Z,11.88
2019-03-10T04:38:48.131Z,11.92
2019-03-10T04:42:18.133Z,11.97
2019-03-10T04:45:48.267Z,12.05
2019-03-10T04:49:18.236Z,12.01
2019-03-10T04:52:48.319Z,12.07
2019-03-10T04:56:24.672Z,12.09
2019-03-10T04:59:54.643Z,12.04
2019-03-10T05:03:24.666Z,11.81
2019-03-10T05:06:54.739Z,11.68
2019-03-10T05:10:25.249Z,11.66
2019-03-10T05:13:55.596Z,11.45
2019-03-10T05:17:26.554Z,11.31
2019-03-10T05:20:56.605Z,11.25
2019-03-10T05:24:26.708Z,11.01
2019-03-10T05:27:56.877Z,11.03
2019-03-10T05:31:26.931Z,11.11
2019-03-10T05:34:57.063Z,11.24
2019-03-10T05:38:27.025Z,11.32
2019-03-10T05:41:57.167Z,11.4
2019-03-10T05:45:27.220Z,11.49
2019-03-10T05:48:57.341Z,11.56
2019-03-10T05:52:27.393Z,11.76
2019-03-10T05:55:57.556Z,11.91
2019-03-10T05:59:27.627Z,12.08
2019-03-10T06:00:17.637Z,12.07
2019-03-10T06:03:47.770Z,12.22
2019-03-10T06:07:17.782Z,12.32
2019-03-10T06:10:48.013Z,12.52
2019-03-10T06:14:18.058Z,12.72
2019-03-10T06:17:49.050Z,12.79
2019-03-10T06:21:19.149Z,12.97
2019-03-10T06:24:49.372Z,13.04
2019-03-10T06:28:19.360Z,12.7
2019-03-10T06:31:49.466Z,12.85
2019-03-10T06:35:19.639Z,13.07
2019-03-10T06:38:49.740Z,13.2
2019-03-10T06:42:19.782Z,13.38
2019-03-10T06:45:49.844Z,13.44
2019-03-10T06:49:19.907Z,13.65
2019-03-10T06:52:50.044Z,13.87
2019-03-10T06:56:20.040Z,14.06
2019-03-10T06:59:50.236Z,13.9
2019-03-10T07:03:20.786Z,13.53
2019-03-10T07:06:51.067Z,13.3
2019-03-10T07:10:21.068Z,13.36
2019-03-10T07:13:51.121Z,13.53
2019-03-10T07:17:21.199Z,13.52
2019-03-10T07:20:51.385Z,13.5
2019-03-10T07:24:21.387Z,13.71
2019-03-10T07:27:56.952Z,13.67
2019-03-10T07:31:32.342Z,13.7
2019-03-10T07:37:28.746Z,13.71
2019-03-10T07:43:24.298Z,13.68
2019-03-10T07:47:06.351Z,13.52
2019-03-10T07:50:46.163Z,13.63
2019-03-10T07:54:22.925Z,13.8
2019-03-10T07:58:01.642Z,14.14
2019-03-10T08:01:28.657Z,14.32
2019-03-10T08:05:08.132Z,14.66
2019-03-10T08:08:49.453Z,14.93
2019-03-10T08:12:57.786Z,15.29
2019-03-10T08:16:39.489Z,15.8
2019-03-10T08:20:20.581Z,16.25
2019-03-10T08:23:57.833Z,16.53
2019-03-10T08:31:02.149Z,17.28
2019-03-10T08:34:47.672Z,17.79
2019-03-10T08:40:54.694Z,18.08
2019-03-10T08:44:38.466Z,18.13
2019-03-10T08:49:20.269Z,18.01
2019-03-10T08:52:55.911Z,17.98
2019-03-10T08:56:31.928Z,18.11
2019-03-10T09:00:08.439Z,18.1
2019-03-10T09:03:48.458Z,18.06
2019-03-10T09:10:10.043Z,17.94
2019-03-10T09:14:20.167Z,18.09
2019-03-10T09:17:59.518Z,17.96
2019-03-10T09:21:45.510Z,18.07
2019-03-10T09:25:25.038Z,18.05
2019-03-10T09:29:03.531Z,18.25
2019-03-10T09:32:43.970Z,18.17
2019-03-10T09:38:39.094Z,17.96
2019-03-10T09:42:19.343Z,17.83
2019-03-10T09:46:27.656Z,17.8
2019-03-10T09:50:09.758Z,17.69
2019-03-10T09:53:58.300Z,17.79
2019-03-10T09:58:42.884Z,18.02
2019-03-10T10:00:27.145Z,18.22
2019-03-10T10:04:05.653Z,18.49
2019-03-10T10:07:48.900Z,18.68
2019-03-10T10:11:23.871Z,18.58
2019-03-10T10:15:08.737Z,18.63
2019-03-10T10:18:46.027Z,18.82
2019-03-10T10:25:48.751Z,19.05
2019-03-10T10:30:33.474Z,19.07
2019-03-10T10:39:57.855Z,19.55
2019-03-10T10:45:13.273Z,19.84
2019-03-10T10:48:51.855Z,20.17
2019-03-10T10:52:31.505Z,20.34
2019-03-10T10:56:10.673Z,20.81
2019-03-10T11:00:04.776Z,21.22
2019-03-10T11:03:45.906Z,21.62
2019-03-10T11:09:41.650Z,21.81
2019-03-10T11:16:17.645Z,21.67
2019-03-10T11:22:49.288Z,22.29
2019-03-10T11:26:25.511Z,22.39
2019-03-10T11:30:07.685Z,22.38
2019-03-10T11:34:49.847Z,22.81
2019-03-10T11:39:33.400Z,22.7
2019-03-10T11:44:17.293Z,22.68
2019-03-10T11:47:54.566Z,23.24
2019-03-10T11:51:32.138Z,22.95
2019-03-10T11:56:15.337Z,22.57
2019-03-10T11:59:53.824Z,22.55
2019-03-10T12:01:31.315Z,22.52
2019-03-10T12:05:12.917Z,22.67
2019-03-10T12:08:52.760Z,22.99
2019-03-10T12:12:22.903Z,22.74
2019-03-10T12:15:53.095Z,22.84
2019-03-10T12:19:23.187Z,22.79
2019-03-10T12:22:53.350Z,22.97
2019-03-10T12:26:23.472Z,23.17
2019-03-10T12:29:54.505Z,23.43
2019-03-10T12:33:24.507Z,23.7
2019-03-10T12:36:54.563Z,23.28
2019-03-10T12:40:24.667Z,23.31
2019-03-10T12:43:54.724Z,23.66
2019-03-10T12:47:24.825Z,23.5
2019-03-10T12:50:54.887Z,23.68
2019-03-10T12:54:24.969Z,23.52
2019-03-10T12:57:55.081Z,23.51
2019-03-10T13:01:25.187Z,23.75
2019-03-10T13:04:55.296Z,23.67
2019-03-10T13:08:25.465Z,23.29
2019-03-10T13:11:55.581Z,23.53
2019-03-10T13:15:25.673Z,23.61
2019-03-10T13:18:55.815Z,23.75
2019-03-10T13:22:25.858Z,23.97
2019-03-10T13:25:56.080Z,23.64
2019-03-10T13:29:26.253Z,23.7
2019-03-10T13:32:58.115Z,23.63
2019-03-10T13:36:28.147Z,23.7
2019-03-10T13:39:58.310Z,24.03
2019-03-10T13:43:28.386Z,24.21
2019-03-10T13:46:58.575Z,24.39
2019-03-10T13:50:28.638Z,24.11
2019-03-10T13:53:58.779Z,24.12
2019-03-10T13:57:28.802Z,24.27
2019-03-10T14:00:17.783Z,24.26
2019-03-10T14:03:47.926Z,24.38
2019-03-10T14:07:17.969Z,24.78
2019-03-10T14:10:48.030Z,25.04
2019-03-10T14:14:18.080Z,25.13
2019-03-10T14:17:48.145Z,25.18
2019-03-10T14:21:18.259Z,24.85
2019-03-10T14:24:48.290Z,25.03
2019-03-10T14:28:18.562Z,25.19
2019-03-10T14:31:48.685Z,25.32
2019-03-10T14:35:19.758Z,25.1
2019-03-10T14:38:49.821Z,24.98
2019-03-10T14:42:19.915Z,24.68
2019-03-10T14:45:50.038Z,24.67
2019-03-10T14:49:23.463Z,24.64
2019-03-10T14:52:53.740Z,24.95
2019-03-10T14:56:23.852Z,24.29
2019-03-10T14:59:53.825Z,24.13
2019-03-10T15:03:23.924Z,24.13
2019-03-10T15:06:54.050Z,23.71
2019-03-10T15:10:24.225Z,23.24
2019-03-10T15:13:54.316Z,23.07
2019-03-10T15:17:24.427Z,22.8
2019-03-10T15:20:54.502Z,22.79
2019-03-10T15:24:24.572Z,22.72
2019-03-10T15:27:54.644Z,22.68
2019-03-10T15:31:24.757Z,22.35
2019-03-10T15:34:54.799Z,22.02
2019-03-10T15:38:25.881Z,21.66
2019-03-10T15:41:55.883Z,21.73
2019-03-10T15:45:27.808Z,21.63
2019-03-10T15:48:58.178Z,21.13
2019-03-10T15:52:28.251Z,20.42
2019-03-10T15:55:58.314Z,20.02
2019-03-10T15:59:28.445Z,19.57
2019-03-10T16:00:17.304Z,19.53
2019-03-10T16:03:47.463Z,19.24
2019-03-10T16:07:17.531Z,19.06
2019-03-10T16:10:47.635Z,18.77
2019-03-10T16:14:17.715Z,18.5
2019-03-10T16:17:47.883Z,18.18
2019-03-10T16:21:18.046Z,17.92
2019-03-10T16:24:48.034Z,17.74
2019-03-10T16:28:18.143Z,17.6
2019-03-10T16:31:48.296Z,17.49
2019-03-10T16:35:18.338Z,17.36
2019-03-10T16:38:50.038Z,17.31
2019-03-10T16:42:20.252Z,17.27
2019-03-10T16:45:50.244Z,17.21
2019-03-10T16:49:20.307Z,17.14
2019-03-10T16:52:50.349Z,17.13
2019-03-10T16:56:31.161Z,17.06
2019-03-10T17:00:01.236Z,17.09
2019-03-10T17:03:31.375Z,17.17
2019-03-10T17:07:01.378Z,17.21
2019-03-10T17:10:31.429Z,17.13
2019-03-10T17:14:02.962Z,17
2019-03-10T17:17:33.206Z,16.96
2019-03-10T17:21:03.320Z,16.93
2019-03-10T17:24:33.368Z,16.88
2019-03-10T17:28:03.552Z,16.85
2019-03-10T17:31:33.762Z,16.84
2019-03-10T17:35:04.114Z,16.81
2019-03-10T17:38:34.266Z,16.76
2019-03-10T17:42:04.512Z,16.51
2019-03-10T17:45:34.581Z,16.31
2019-03-10T17:49:04.713Z,16.25
2019-03-10T17:52:34.855Z,16.14
2019-03-10T17:56:05.026Z,16.07
2019-03-10T17:59:35.089Z,15.91
2019-03-10T18:00:18.860Z,15.9
2019-03-10T18:03:48.871Z,15.88
2019-03-10T18:07:19.014Z,15.79
2019-03-10T18:10:49.106Z,15.74
2019-03-10T18:14:19.208Z,15.66
2019-03-10T18:17:49.249Z,15.55
2019-03-10T18:21:19.332Z,15.52
2019-03-10T18:24:49.324Z,15.48
2019-03-10T18:28:19.496Z,15.33
2019-03-10T18:31:49.582Z,15.28
2019-03-10T18:35:19.720Z,15.25
2019-03-10T18:38:49.827Z,15.22
2019-03-10T18:42:20.864Z,15.22
2019-03-10T18:45:50.944Z,15.23
2019-03-10T18:49:21.052Z,15.24
2019-03-10T18:52:51.128Z,15.3
2019-03-10T18:56:21.213Z,15.25
2019-03-10T18:59:51.261Z,15.16
2019-03-10T19:03:21.496Z,15.03
2019-03-10T19:06:51.443Z,14.98
2019-03-10T19:10:21.501Z,14.97
2019-03-10T19:13:51.643Z,14.87
2019-03-10T19:17:21.765Z,14.83
2019-03-10T19:20:51.943Z,14.84
2019-03-10T19:24:22.141Z,14.86
2019-03-10T19:27:52.175Z,14.76
2019-03-10T19:31:22.394Z,14.68
2019-03-10T19:34:52.457Z,14.65
2019-03-10T19:38:22.508Z,14.62
2019-03-10T19:41:52.519Z,14.69
2019-03-10T19:45:22.731Z,14.61
2019-03-10T19:48:52.883Z,14.68
2019-03-10T19:52:22.945Z,14.67
2019-03-10T19:55:52.957Z,14.77
2019-03-10T19:59:23.089Z,14.77
2019-03-10T20:00:17.310Z,14.83
2019-03-10T20:03:47.232Z,14.86
2019-03-10T20:07:17.323Z,14.91
2019-03-10T20:10:47.409Z,14.85
2019-03-10T20:14:17.468Z,14.79
2019-03-10T20:17:47.592Z,14.78
2019-03-10T20:21:17.665Z,14.7
2019-03-10T20:24:47.764Z,14.71
2019-03-10T20:28:17.832Z,14.7
2019-03-10T20:31:47.908Z,14.69
2019-03-10T20:35:18.020Z,14.69
2019-03-10T20:38:48.142Z,14.61
2019-03-10T20:42:18.244Z,14.6
2019-03-10T20:45:49.249Z,14.53
2019-03-10T20:49:19.378Z,14.52
2019-03-10T20:52:49.460Z,14.46
2019-03-10T20:56:19.674Z,14.56
2019-03-10T21:00:00.003Z,14.54
2019-03-10T21:03:30.776Z,14.62
2019-03-10T21:07:00.797Z,14.63
2019-03-10T21:10:30.800Z,14.74
2019-03-10T21:14:00.912Z,14.77
2019-03-10T21:17:31.014Z,14.85
2019-03-10T21:21:01.137Z,14.79
2019-03-10T21:24:31.501Z,14.87
2019-03-10T21:28:01.488Z,14.86
2019-03-10T21:31:31.608Z,14.75
2019-03-10T21:35:01.709Z,14.74
2019-03-10T21:38:31.776Z,14.7
2019-03-10T21:42:01.823Z,14.67
2019-03-10T21:45:32.250Z,14.61
2019-03-10T21:49:03.432Z,14.59
2019-03-10T21:52:33.474Z,14.63
2019-03-10T21:56:03.436Z,14.54
2019-03-10T21:59:33.470Z,14.48
2019-03-10T22:00:16.931Z,14.43
2019-03-10T22:03:47.097Z,14.39
2019-03-10T22:07:17.163Z,14.35
2019-03-10T22:10:47.275Z,14.27
2019-03-10T22:14:17.377Z,14.25
2019-03-10T22:17:47.559Z,14.12
2019-03-10T22:21:17.675Z,14.08
2019-03-10T22:24:47.794Z,14.11
2019-03-10T22:28:17.886Z,14.15
2019-03-10T22:31:47.898Z,14.15
2019-03-10T22:35:18.054Z,14.15
2019-03-10T22:38:48.042Z,14.34
2019-03-10T22:42:18.074Z,14.29
2019-03-10T22:45:48.137Z,14.39
2019-03-10T22:49:18.370Z,14.34
2019-03-10T22:52:48.419Z,14.36
2019-03-10T22:56:18.461Z,14.34
2019-03-10T22:59:48.623Z,14.38
2019-03-10T23:03:18.747Z,14.31
2019-03-10T23:06:48.938Z,14.16
2019-03-10T23:10:19.139Z,14.12
2019-03-10T23:13:49.161Z,14.06
2019-03-10T23:17:19.633Z,13.96
2019-03-10T23:20:49.655Z,14.03
2019-03-10T23:24:19.728Z,14.06
2019-03-10T23:27:49.909Z,14.01
2019-03-10T23:31:20.082Z,14.08
2019-03-10T23:34:50.083Z,14.12
2019-03-10T23:38:20.145Z,14.15
2019-03-10T23:41:50.230Z,14.16
2019-03-10T23:45:20.299Z,14.13
2019-03-10T23:48:50.322Z,14.17
2019-03-10T23:52:21.314Z,14.16
2019-03-10T23:55:51.338Z,14.14
2019-03-10T23:59:21.468Z,14.15
